Frederic, Wisconsin
Current Conditions -  °F | °C
As of 4:15 AM on Thursday 23 Oct 2014 (Local Time) from KRZN Reporting Station
Drizzle Drizzle  
Wind Chill: 52°   Ceiling: 2100
Heat Index: 52°   Visibility: 10mi
Dew Point: 42°   Wind: 6mph
Humidity: 69%   Direction: 170°S
Pressure: 30"   Gusts: NA
Location:  45.66°N, 92.47°W
Report Text: KRZN 230915Z AUTO 17005KT 10SM -DZ OVC021 11/06 A3000 RMK AO2 T01110057
Loading
Personal Weather Stations






























Interactive Weather Map
Tropical Storm Tracking
New forecast layout! Learn more

10-Day Weather Forecast

Advertisements
Track Severe Weather on mobile